»·PEaware :: HYDRA61 KDLF-KSKF

HYDRA61 :: KDLF-KSKF

FLIGHT INFORMATION

Flight Status: Arrived
Operator: Unknown
More flights by this operator :: More flights under this callsign
Pilot: 47th FTW Laughlin (28783)
Aircraft: BEECH AIRCRAFT T-6A TEXAN
(TEX2)
More flights by this aircraft type
Origin: KDLF Laughlin AFB
United States
Destination: KSKF Lackland AFB Kelly Fld Annex
United States
More flights between these airports :: More routes between these airports
Route: HINKO1 CSI CSI2
File this flight plan on PilotEdge
Remarks:
Altitude:
(Current/Filed)
15,000ft
Speed:
(Current/Filed)
275kts
Departed: 30-Jul-20 10:38 AM
Arrived: 30-Jul-20 11:37 AM
Distance/Time
Traveled:
115nm/0:58
Distance/Time
To Go:
Arrived

Flight Plot

Page will automatically refresh every two minutes.

Flight plan parsing failed; only flown route is shown


Map Options




Map Legend


Flown Route
Filed Route
Departure Airport
Arrival Airport
Navaid (VOR, NDB)
Fix

Horizontal Profiles

Position Reports

Time Latitude Longitude Heading Altitude Ground
Speed
30-Jul-20 10:04 29.362977 -100.788166 45 1074ft 0kts
30-Jul-20 10:05 29.362977 -100.788166 45 1074ft 0kts
30-Jul-20 10:06 29.362977 -100.788166 45 1074ft 0kts
30-Jul-20 10:07 29.362977 -100.788166 45 1074ft 0kts
30-Jul-20 10:08 29.362977 -100.788166 45 1074ft 0kts
30-Jul-20 10:09 29.362977 -100.788166 45 1074ft 0kts
30-Jul-20 10:10 29.362977 -100.788166 45 1074ft 0kts
30-Jul-20 10:11 29.362977 -100.788166 45 1074ft 0kts
30-Jul-20 10:12 29.362977 -100.788166 45 1074ft 0kts
30-Jul-20 10:13 29.362977 -100.788166 45 1074ft 0kts
30-Jul-20 10:14 29.362977 -100.788166 45 1074ft 0kts
30-Jul-20 10:15 29.362977 -100.788166 45 1074ft 0kts
30-Jul-20 10:16 29.362977 -100.788166 45 1074ft 0kts
30-Jul-20 10:17 29.362977 -100.788166 45 1074ft 0kts
30-Jul-20 10:19 29.362977 -100.788166 45 1074ft 0kts
30-Jul-20 10:20 29.362977 -100.788166 45 1074ft 0kts
30-Jul-20 10:21 29.362977 -100.788166 45 1074ft 0kts
30-Jul-20 10:22 29.362977 -100.788166 45 1074ft 0kts
30-Jul-20 10:23 29.362977 -100.788166 45 1074ft 0kts
30-Jul-20 10:24 29.362977 -100.788166 45 1074ft 0kts
30-Jul-20 10:25 29.362977 -100.788166 45 1074ft 0kts
30-Jul-20 10:26 29.362977 -100.788166 45 1074ft 0kts
30-Jul-20 10:27 29.362977 -100.788166 45 1074ft 0kts
30-Jul-20 10:28 29.362977 -100.788166 45 1074ft 0kts
30-Jul-20 10:29 29.362977 -100.788166 45 1074ft 0kts
30-Jul-20 10:30 29.362977 -100.788166 45 1074ft 0kts
30-Jul-20 10:31 29.362977 -100.788166 45 1074ft 0kts
30-Jul-20 10:32 29.362977 -100.788166 45 1074ft 0kts
30-Jul-20 10:33 29.362977 -100.788166 45 1074ft 0kts
30-Jul-20 10:34 29.362977 -100.788166 45 1074ft 0kts
30-Jul-20 10:34 29.362977 -100.788166 45 1074ft 0kts
30-Jul-20 10:36 29.365202 -100.789656 20 1077ft 11kts
30-Jul-20 10:36 29.366404 -100.788333 45 1079ft 25kts
30-Jul-20 10:38 29.364062 -100.784119 134 1104ft 95kts
30-Jul-20 10:39 29.332756 -100.747097 133 2883ft 185kts
30-Jul-20 10:39 29.303697 -100.714188 136 5824ft 172kts
30-Jul-20 10:40 29.315069 -100.682724 354 9309ft 187kts
30-Jul-20 10:42 29.378107 -100.690173 354 13155ft 207kts
30-Jul-20 10:42 29.428130 -100.695694 357 14963ft 249kts
30-Jul-20 10:43 29.489255 -100.660439 42 15023ft 271kts
30-Jul-20 10:44 29.546562 -100.606330 38 14921ft 256kts
30-Jul-20 10:45 29.602260 -100.556342 41 14928ft 253kts
30-Jul-20 10:46 29.658857 -100.507902 37 14900ft 253kts
30-Jul-20 10:47 29.715019 -100.458435 39 14907ft 252kts
30-Jul-20 10:48 29.770813 -100.410155 37 15002ft 252kts
30-Jul-20 10:49 29.824731 -100.358350 41 14978ft 253kts
30-Jul-20 10:50 29.879437 -100.306631 38 14969ft 254kts
30-Jul-20 10:51 29.935843 -100.257995 39 14980ft 254kts
30-Jul-20 10:52 29.990989 -100.207463 39 15006ft 253kts
30-Jul-20 10:53 30.045085 -100.155755 40 15035ft 252kts
30-Jul-20 10:54 30.094597 -100.100079 60 15180ft 247kts
30-Jul-20 10:56 30.136921 -100.017998 61 14937ft 252kts
30-Jul-20 10:56 30.166276 -99.959570 63 14856ft 253kts
30-Jul-20 10:57 30.156892 -99.883290 108 14843ft 249kts
30-Jul-20 10:58 30.138062 -99.806864 106 14914ft 246kts
30-Jul-20 10:59 30.114671 -99.729228 111 14978ft 270kts
30-Jul-20 11:00 30.084688 -99.647920 115 14912ft 280kts
30-Jul-20 11:01 30.053455 -99.565970 111 14909ft 278kts
30-Jul-20 11:02 30.025325 -99.483839 113 14633ft 268kts
30-Jul-20 11:03 29.994733 -99.408362 117 12208ft 259kts
30-Jul-20 11:04 29.968788 -99.333942 115 9948ft 241kts
30-Jul-20 11:05 29.942369 -99.266031 116 9878ft 228kts
30-Jul-20 11:06 29.916785 -99.199517 115 9938ft 223kts
30-Jul-20 11:07 29.893487 -99.132542 115 9946ft 223kts
30-Jul-20 11:08 29.870000 -99.066150 116 9970ft 224kts
30-Jul-20 11:09 29.845045 -99.000341 112 9970ft 225kts
30-Jul-20 11:10 29.807791 -98.943690 136 9221ft 226kts
30-Jul-20 11:11 29.763664 -98.894522 132 7307ft 217kts
30-Jul-20 11:12 29.722348 -98.845757 135 5328ft 210kts
30-Jul-20 11:13 29.681989 -98.798229 134 3940ft 207kts
30-Jul-20 11:14 29.643595 -98.753473 134 3108ft 178kts
30-Jul-20 11:15 29.613634 -98.718390 135 3099ft 144kts
30-Jul-20 11:16 29.583882 -98.683682 134 3046ft 162kts
30-Jul-20 11:17 29.552279 -98.646464 134 3040ft 163kts
30-Jul-20 11:18 29.511328 -98.628066 163 2367ft 142kts
30-Jul-20 11:19 29.479369 -98.616073 159 2311ft 109kts
30-Jul-20 11:20 29.450638 -98.605495 164 1771ft 110kts
30-Jul-20 11:21 29.422384 -98.595248 160 1229ft 106kts
30-Jul-20 11:22 29.394480 -98.584915 161 699ft 89kts
30-Jul-20 11:23 29.359096 -98.574168 165 2695ft 168kts
30-Jul-20 11:24 29.308294 -98.579839 250 2976ft 217kts
30-Jul-20 11:25 29.330555 -98.632507 303 3065ft 169kts
30-Jul-20 11:26 29.358282 -98.678566 304 3033ft 179kts
30-Jul-20 11:27 29.393781 -98.712784 344 3007ft 171kts
30-Jul-20 11:28 29.438091 -98.728208 344 3050ft 164kts
30-Jul-20 11:29 29.482385 -98.743994 343 3124ft 166kts
30-Jul-20 11:30 29.510444 -98.716336 75 3092ft 158kts
30-Jul-20 11:31 29.518754 -98.671378 121 3003ft 161kts
30-Jul-20 11:32 29.487704 -98.636436 137 2982ft 155kts
30-Jul-20 11:33 29.455184 -98.610464 151 1977ft 116kts
30-Jul-20 11:34 29.426902 -98.596934 156 1271ft 110kts
30-Jul-20 11:35 29.398287 -98.586283 162 761ft 107kts
30-Jul-20 11:36 29.382495 -98.580220 167 692ft 33kts
30-Jul-20 11:37 29.374767 -98.575929 75 692ft 23kts

Navigation Log

Ident Type
Flight plan parsing failed, navigation log unavailable